Alto, Louisiana
Current Conditions -  °F | °C
As of 11:53 PM on Friday 31 Oct 2014 (Local Time) from KMLU Reporting Station
Clear Clear  
Wind Chill: 44°   Ceiling: Unl
Heat Index: 49°   Visibility: 10mi
Dew Point: 28°   Wind: 12mph
Humidity: 44%   Direction: 30°NNE
Pressure: 30.34"   Gusts: 22mph
Location:  32.4475°N, 91.7992°W
Report Text: KMLU 010453Z AUTO 03010G19KT 10SM CLR 09/M02 A3034 RMK AO2 SLP273 T00941022
Loading
Personal Weather Stations






























Interactive Weather Map
Tropical Storm Tracking
New forecast layout! Learn more

10-Day Weather Forecast

Advertisements
Track Severe Weather on mobile